Hauptseite
METAR-TAF:

METAR-TAF

Flughäfen :

Dakar, Senegal

Flughafen Dakar-Léopold Sédar Senghor

Breite: 14-44N, Länge: 017-30W, Höhe: 27 m

Beobachtung

Neuester Wetterbericht von vor 24 Minuten, um 18:00 UTC
Wind 9 kt aus Nord
Temperatur 20°C
Luftfeuchtigkeit 88%
Luftdruck 1011 hPa
Sichtweite 10 km oder mehr
Leicht bewölkt in der Höhe von 800 ft

METAR: GOOY 221800Z 36009KT 9999 FEW008 20/18 Q1011

Zeit: 18:24 (18:24 UTC)

Prognose

Neuester Wetterbericht von vor 54 Minuten, um 17:30 UTC
Gültige Prognose vom 22 um 18 UTC bis 23 um 24 UTC
Wind 10 kt aus Nord/Nordwest
Sichtweite 10 km oder mehr
Aufgelockert bewölkt in der Höhe von 800 ft

TAF: GOOY 221730Z 2218/2324 34010KT 9999 SCT008

Wetterbeobachtungen und Prognosen von mehr als 4000 Flughäfen (METAR und TAF Bericht).

Die verfügbaren Stationen werden durch gelbe und rote Markierungen auf der Karte dargestellt.

Führen Sie die Maus auf sie, um den Namen der Station zu sehen.

Darauf klicken, um die Beobachtung von Wetterbeobachtungen und Prognosen zu sehen.

Um die Karte zu ändern : klicken Sie auf den grünen Tasten mit einem schwarzen Kreuz Zum Vergrößern, auf den grünen Button mit einem Gedankenstrich zu verkleinern, oder auf die grünen Pfeile für benachbarte Karten.


METAR-TAF: